sensor_id;sensor_type;location;lat;lon;timestamp;temperature;humidity
16136;DHT22;8173;48.354;9.248;2022-12-18T00:02:02;-8.80;99.90
16136;DHT22;8173;48.354;9.248;2022-12-18T00:04:29;-8.70;99.90
16136;DHT22;8173;48.354;9.248;2022-12-18T00:06:57;-8.70;99.90
16136;DHT22;8173;48.354;9.248;2022-12-18T00:11:51;-8.70;99.90
16136;DHT22;8173;48.354;9.248;2022-12-18T00:14:17;-8.60;99.90
16136;DHT22;8173;48.354;9.248;2022-12-18T00:16:45;-8.60;99.90
16136;DHT22;8173;48.354;9.248;2022-12-18T00:19:12;-8.60;99.90
16136;DHT22;8173;48.354;9.248;2022-12-18T00:21:39;-8.50;99.90
16136;DHT22;8173;48.354;9.248;2022-12-18T00:24:08;-8.40;99.90
16136;DHT22;8173;48.354;9.248;2022-12-18T00:26:36;-8.30;99.90
16136;DHT22;8173;48.354;9.248;2022-12-18T00:29:06;-8.30;99.90
16136;DHT22;8173;48.354;9.248;2022-12-18T00:31:33;-8.20;99.90
16136;DHT22;8173;48.354;9.248;2022-12-18T00:34:00;-8.20;99.90
16136;DHT22;8173;48.354;9.248;2022-12-18T00:36:29;-8.10;99.90
16136;DHT22;8173;48.354;9.248;2022-12-18T00:38:57;-8.10;99.90
16136;DHT22;8173;48.354;9.248;2022-12-18T00:41:26;-8.00;99.90
16136;DHT22;8173;48.354;9.248;2022-12-18T00:44:12;-7.90;99.90
16136;DHT22;8173;48.354;9.248;2022-12-18T00:46:39;-7.80;99.90
16136;DHT22;8173;48.354;9.248;2022-12-18T00:49:06;-7.70;99.90
16136;DHT22;8173;48.354;9.248;2022-12-18T00:51:33;-7.70;99.90
16136;DHT22;8173;48.354;9.248;2022-12-18T00:53:59;-7.70;99.90
16136;DHT22;8173;48.354;9.248;2022-12-18T00:56:27;-7.70;99.90
16136;DHT22;8173;48.354;9.248;2022-12-18T00:58:54;-7.70;99.90
16136;DHT22;8173;48.354;9.248;2022-12-18T01:01:21;-7.60;99.90
16136;DHT22;8173;48.354;9.248;2022-12-18T01:03:48;-7.60;99.90
16136;DHT22;8173;48.354;9.248;2022-12-18T01:06:16;-7.60;99.90
16136;DHT22;8173;48.354;9.248;2022-12-18T01:08:43;-7.50;99.90
16136;DHT22;8173;48.354;9.248;2022-12-18T01:11:15;-7.50;99.90
16136;DHT22;8173;48.354;9.248;2022-12-18T01:13:44;-7.50;99.90
16136;DHT22;8173;48.354;9.248;2022-12-18T01:16:12;-7.40;99.90
16136;DHT22;8173;48.354;9.248;2022-12-18T01:18:39;-7.40;99.90
16136;DHT22;8173;48.354;9.248;2022-12-18T01:21:07;-7.40;99.90
16136;DHT22;8173;48.354;9.248;2022-12-18T01:23:34;-7.30;99.90
16136;DHT22;8173;48.354;9.248;2022-12-18T01:26:04;-7.30;99.90
16136;DHT22;8173;48.354;9.248;2022-12-18T01:28:31;-7.30;99.90
16136;DHT22;8173;48.354;9.248;2022-12-18T01:31:09;-7.30;99.90
16136;DHT22;8173;48.354;9.248;2022-12-18T01:33:36;-7.30;99.90
16136;DHT22;8173;48.354;9.248;2022-12-18T01:36:03;-7.30;99.90
16136;DHT22;8173;48.354;9.248;2022-12-18T01:38:30;-7.30;99.90
16136;DHT22;8173;48.354;9.248;2022-12-18T01:40:57;-7.30;99.90
16136;DHT22;8173;48.354;9.248;2022-12-18T01:43:42;-7.30;99.90
16136;DHT22;8173;48.354;9.248;2022-12-18T01:46:11;-7.30;99.90
16136;DHT22;8173;48.354;9.248;2022-12-18T01:48:38;-7.30;99.90
16136;DHT22;8173;48.354;9.248;2022-12-18T01:51:06;-7.30;99.90
16136;DHT22;8173;48.354;9.248;2022-12-18T01:53:34;-7.30;99.90
16136;DHT22;8173;48.354;9.248;2022-12-18T01:56:00;-7.30;99.90
16136;DHT22;8173;48.354;9.248;2022-12-18T01:58:29;-7.30;99.90
16136;DHT22;8173;48.354;9.248;2022-12-18T02:00:59;-7.20;99.90
16136;DHT22;8173;48.354;9.248;2022-12-18T02:03:27;-7.20;99.90
16136;DHT22;8173;48.354;9.248;2022-12-18T02:06:00;-7.20;99.90
16136;DHT22;8173;48.354;9.248;2022-12-18T02:08:33;-7.20;99.90
16136;DHT22;8173;48.354;9.248;2022-12-18T02:11:06;-7.30;99.90
16136;DHT22;8173;48.354;9.248;2022-12-18T02:13:39;-7.30;99.90
16136;DHT22;8173;48.354;9.248;2022-12-18T02:16:12;-7.20;99.90
16136;DHT22;8173;48.354;9.248;2022-12-18T02:18:47;-7.30;99.90
16136;DHT22;8173;48.354;9.248;2022-12-18T02:21:22;-7.20;99.90
16136;DHT22;8173;48.354;9.248;2022-12-18T02:23:57;-7.20;99.90
16136;DHT22;8173;48.354;9.248;2022-12-18T02:26:34;-7.20;99.90
16136;DHT22;8173;48.354;9.248;2022-12-18T02:29:05;-7.10;99.90
16136;DHT22;8173;48.354;9.248;2022-12-18T02:31:36;-7.10;99.90
16136;DHT22;8173;48.354;9.248;2022-12-18T02:34:06;-7.20;99.90
16136;DHT22;8173;48.354;9.248;2022-12-18T02:36:36;-7.10;99.90
16136;DHT22;8173;48.354;9.248;2022-12-18T02:39:05;-7.10;99.90
16136;DHT22;8173;48.354;9.248;2022-12-18T02:41:35;-7.10;99.90
16136;DHT22;8173;48.354;9.248;2022-12-18T02:44:08;-7.10;99.90
16136;DHT22;8173;48.354;9.248;2022-12-18T02:46:37;-7.00;99.90
16136;DHT22;8173;48.354;9.248;2022-12-18T02:49:15;-7.00;99.90
16136;DHT22;8173;48.354;9.248;2022-12-18T02:51:50;-7.00;99.90
16136;DHT22;8173;48.354;9.248;2022-12-18T02:54:29;-7.00;99.90
16136;DHT22;8173;48.354;9.248;2022-12-18T02:57:06;-7.00;99.90
16136;DHT22;8173;48.354;9.248;2022-12-18T02:59:39;-7.00;99.90
16136;DHT22;8173;48.354;9.248;2022-12-18T03:02:16;-7.00;99.90
16136;DHT22;8173;48.354;9.248;2022-12-18T03:04:47;-6.90;99.90
16136;DHT22;8173;48.354;9.248;2022-12-18T03:07:20;-6.90;99.90
16136;DHT22;8173;48.354;9.248;2022-12-18T03:09:50;-6.90;99.90
16136;DHT22;8173;48.354;9.248;2022-12-18T03:12:23;-6.90;99.90
16136;DHT22;8173;48.354;9.248;2022-12-18T03:14:58;-6.90;99.90
16136;DHT22;8173;48.354;9.248;2022-12-18T03:17:27;-6.90;99.90
16136;DHT22;8173;48.354;9.248;2022-12-18T03:19:58;-6.80;99.90
16136;DHT22;8173;48.354;9.248;2022-12-18T03:22:27;-6.90;99.90
16136;DHT22;8173;48.354;9.248;2022-12-18T03:24:56;-6.80;99.90
16136;DHT22;8173;48.354;9.248;2022-12-18T03:27:27;-6.80;99.90
16136;DHT22;8173;48.354;9.248;2022-12-18T03:30:00;-6.90;99.90
16136;DHT22;8173;48.354;9.248;2022-12-18T03:32:36;-6.80;99.90
16136;DHT22;8173;48.354;9.248;2022-12-18T03:35:07;-6.80;99.90
16136;DHT22;8173;48.354;9.248;2022-12-18T03:37:35;-6.90;99.90
16136;DHT22;8173;48.354;9.248;2022-12-18T03:40:02;-6.90;99.90
16136;DHT22;8173;48.354;9.248;2022-12-18T03:42:34;-6.90;99.90
16136;DHT22;8173;48.354;9.248;2022-12-18T03:45:09;-7.00;99.90
16136;DHT22;8173;48.354;9.248;2022-12-18T03:50:12;-7.10;99.90
16136;DHT22;8173;48.354;9.248;2022-12-18T03:52:45;-7.10;99.90
16136;DHT22;8173;48.354;9.248;2022-12-18T03:55:13;-7.10;99.90
16136;DHT22;8173;48.354;9.248;2022-12-18T03:57:41;-7.00;99.90
16136;DHT22;8173;48.354;9.248;2022-12-18T04:00:11;-7.00;99.90
16136;DHT22;8173;48.354;9.248;2022-12-18T04:02:42;-6.90;99.90
16136;DHT22;8173;48.354;9.248;2022-12-18T04:05:10;-6.90;99.90
16136;DHT22;8173;48.354;9.248;2022-12-18T04:07:38;-6.90;99.90
16136;DHT22;8173;48.354;9.248;2022-12-18T04:10:07;-7.00;99.90
16136;DHT22;8173;48.354;9.248;2022-12-18T04:12:34;-7.00;99.90
16136;DHT22;8173;48.354;9.248;2022-12-18T04:15:06;-8.60;99.90
16136;DHT22;8173;48.354;9.248;2022-12-18T04:17:33;-7.00;99.90
16136;DHT22;8173;48.354;9.248;2022-12-18T04:20:00;-7.00;99.90
16136;DHT22;8173;48.354;9.248;2022-12-18T04:22:27;-7.00;99.90
16136;DHT22;8173;48.354;9.248;2022-12-18T04:24:54;-7.00;99.90
16136;DHT22;8173;48.354;9.248;2022-12-18T04:27:21;-7.00;99.90
16136;DHT22;8173;48.354;9.248;2022-12-18T04:29:47;-7.00;99.90
16136;DHT22;8173;48.354;9.248;2022-12-18T04:32:15;-7.00;99.90
16136;DHT22;8173;48.354;9.248;2022-12-18T04:34:42;-5.00;99.90
16136;DHT22;8173;48.354;9.248;2022-12-18T04:37:09;-7.00;99.90
16136;DHT22;8173;48.354;9.248;2022-12-18T04:42:03;-7.00;99.90
16136;DHT22;8173;48.354;9.248;2022-12-18T04:44:30;-7.00;99.90
16136;DHT22;8173;48.354;9.248;2022-12-18T04:46:57;-7.00;99.90
16136;DHT22;8173;48.354;9.248;2022-12-18T04:49:25;-7.00;99.90
16136;DHT22;8173;48.354;9.248;2022-12-18T04:51:52;-6.90;99.90
16136;DHT22;8173;48.354;9.248;2022-12-18T04:54:18;-7.00;99.90
16136;DHT22;8173;48.354;9.248;2022-12-18T04:56:45;-6.90;99.90
16136;DHT22;8173;48.354;9.248;2022-12-18T04:59:12;-7.00;99.90
16136;DHT22;8173;48.354;9.248;2022-12-18T05:01:39;-7.10;99.90
16136;DHT22;8173;48.354;9.248;2022-12-18T05:04:05;-7.10;99.90
16136;DHT22;8173;48.354;9.248;2022-12-18T05:06:33;-7.10;99.90
16136;DHT22;8173;48.354;9.248;2022-12-18T05:09:00;-7.10;99.90
16136;DHT22;8173;48.354;9.248;2022-12-18T05:11:27;-7.10;99.90
16136;DHT22;8173;48.354;9.248;2022-12-18T05:13:55;-7.10;99.90
16136;DHT22;8173;48.354;9.248;2022-12-18T05:16:22;-7.10;99.90
16136;DHT22;8173;48.354;9.248;2022-12-18T05:18:48;-7.10;99.90
16136;DHT22;8173;48.354;9.248;2022-12-18T05:21:15;-7.10;99.90
16136;DHT22;8173;48.354;9.248;2022-12-18T05:23:43;-7.10;99.90
16136;DHT22;8173;48.354;9.248;2022-12-18T05:26:15;-7.10;99.90
16136;DHT22;8173;48.354;9.248;2022-12-18T05:28:45;-7.10;99.90
16136;DHT22;8173;48.354;9.248;2022-12-18T05:31:12;-7.10;99.90
16136;DHT22;8173;48.354;9.248;2022-12-18T05:33:39;-7.10;99.90
16136;DHT22;8173;48.354;9.248;2022-12-18T05:36:07;-7.00;99.90
16136;DHT22;8173;48.354;9.248;2022-12-18T05:38:36;-7.10;99.90
16136;DHT22;8173;48.354;9.248;2022-12-18T05:41:05;-7.10;99.90
16136;DHT22;8173;48.354;9.248;2022-12-18T05:43:33;-7.10;99.90
16136;DHT22;8173;48.354;9.248;2022-12-18T05:46:04;-7.10;99.90
16136;DHT22;8173;48.354;9.248;2022-12-18T05:48:31;-7.10;99.90
16136;DHT22;8173;48.354;9.248;2022-12-18T05:51:03;-7.10;99.90
16136;DHT22;8173;48.354;9.248;2022-12-18T05:53:30;-7.00;99.90
16136;DHT22;8173;48.354;9.248;2022-12-18T05:56:00;-7.00;99.90
16136;DHT22;8173;48.354;9.248;2022-12-18T05:58:29;-7.00;99.90
16136;DHT22;8173;48.354;9.248;2022-12-18T06:00:56;-7.00;99.90
16136;DHT22;8173;48.354;9.248;2022-12-18T06:03:23;-7.10;99.90
16136;DHT22;8173;48.354;9.248;2022-12-18T06:05:50;-7.10;99.90
16136;DHT22;8173;48.354;9.248;2022-12-18T06:08:17;-7.10;99.90
16136;DHT22;8173;48.354;9.248;2022-12-18T06:10:50;-7.10;99.90
16136;DHT22;8173;48.354;9.248;2022-12-18T06:13:17;-7.10;99.90
16136;DHT22;8173;48.354;9.248;2022-12-18T06:15:45;-7.10;99.90
16136;DHT22;8173;48.354;9.248;2022-12-18T06:18:12;-7.10;99.90
16136;DHT22;8173;48.354;9.248;2022-12-18T06:20:39;-7.00;99.90
16136;DHT22;8173;48.354;9.248;2022-12-18T06:23:07;-7.00;99.90
16136;DHT22;8173;48.354;9.248;2022-12-18T06:25:36;-7.00;99.90
16136;DHT22;8173;48.354;9.248;2022-12-18T06:28:03;-7.00;99.90
16136;DHT22;8173;48.354;9.248;2022-12-18T06:30:30;-7.00;99.90
16136;DHT22;8173;48.354;9.248;2022-12-18T06:32:58;-7.00;99.90
16136;DHT22;8173;48.354;9.248;2022-12-18T06:35:24;-7.00;99.90
16136;DHT22;8173;48.354;9.248;2022-12-18T06:37:51;-7.00;99.90
16136;DHT22;8173;48.354;9.248;2022-12-18T06:40:18;-7.00;99.90
16136;DHT22;8173;48.354;9.248;2022-12-18T06:42:45;-7.00;99.90
16136;DHT22;8173;48.354;9.248;2022-12-18T06:45:11;-7.00;99.90
16136;DHT22;8173;48.354;9.248;2022-12-18T06:47:38;-7.10;99.90
16136;DHT22;8173;48.354;9.248;2022-12-18T06:50:07;-7.10;99.90
16136;DHT22;8173;48.354;9.248;2022-12-18T06:52:34;-7.10;99.90
16136;DHT22;8173;48.354;9.248;2022-12-18T06:55:01;-7.00;99.90
16136;DHT22;8173;48.354;9.248;2022-12-18T06:57:27;-7.00;99.90
16136;DHT22;8173;48.354;9.248;2022-12-18T06:59:54;-7.00;99.90
16136;DHT22;8173;48.354;9.248;2022-12-18T07:02:21;-7.00;99.90
16136;DHT22;8173;48.354;9.248;2022-12-18T07:04:48;-7.00;99.90
16136;DHT22;8173;48.354;9.248;2022-12-18T07:07:16;-7.00;99.90
16136;DHT22;8173;48.354;9.248;2022-12-18T07:09:42;-7.00;99.90
16136;DHT22;8173;48.354;9.248;2022-12-18T07:12:09;-7.00;99.90
16136;DHT22;8173;48.354;9.248;2022-12-18T07:14:36;-7.00;99.90
16136;DHT22;8173;48.354;9.248;2022-12-18T07:17:03;-7.00;99.90
16136;DHT22;8173;48.354;9.248;2022-12-18T07:19:29;-7.00;99.90
16136;DHT22;8173;48.354;9.248;2022-12-18T07:21:56;-6.90;99.90
16136;DHT22;8173;48.354;9.248;2022-12-18T07:24:24;-6.90;99.90
16136;DHT22;8173;48.354;9.248;2022-12-18T07:26:51;-6.90;99.90
16136;DHT22;8173;48.354;9.248;2022-12-18T07:29:18;-6.90;99.90
16136;DHT22;8173;48.354;9.248;2022-12-18T07:31:44;-6.90;99.90
16136;DHT22;8173;48.354;9.248;2022-12-18T07:34:12;-6.90;99.90
16136;DHT22;8173;48.354;9.248;2022-12-18T07:36:39;-6.90;99.90
16136;DHT22;8173;48.354;9.248;2022-12-18T07:39:05;-6.90;99.90
16136;DHT22;8173;48.354;9.248;2022-12-18T07:41:34;-6.90;99.90
16136;DHT22;8173;48.354;9.248;2022-12-18T07:44:00;-6.90;99.90
16136;DHT22;8173;48.354;9.248;2022-12-18T07:46:27;-6.90;99.90
16136;DHT22;8173;48.354;9.248;2022-12-18T07:48:54;-6.90;99.90
16136;DHT22;8173;48.354;9.248;2022-12-18T07:51:20;-6.90;99.90
16136;DHT22;8173;48.354;9.248;2022-12-18T07:53:47;-6.90;99.90
16136;DHT22;8173;48.354;9.248;2022-12-18T07:56:14;-6.90;99.90
16136;DHT22;8173;48.354;9.248;2022-12-18T07:58:42;-6.90;99.90
16136;DHT22;8173;48.354;9.248;2022-12-18T08:01:11;-6.90;99.90
16136;DHT22;8173;48.354;9.248;2022-12-18T08:03:40;-6.90;99.90
16136;DHT22;8173;48.354;9.248;2022-12-18T08:06:08;-6.90;99.90
16136;DHT22;8173;48.354;9.248;2022-12-18T08:08:35;-6.90;99.90
16136;DHT22;8173;48.354;9.248;2022-12-18T08:11:02;-6.90;99.90
16136;DHT22;8173;48.354;9.248;2022-12-18T08:13:29;-7.00;99.90
16136;DHT22;8173;48.354;9.248;2022-12-18T08:15:58;-6.90;99.90
16136;DHT22;8173;48.354;9.248;2022-12-18T08:18:26;-6.90;99.90
16136;DHT22;8173;48.354;9.248;2022-12-18T08:20:53;-6.80;99.90
16136;DHT22;8173;48.354;9.248;2022-12-18T08:23:20;-6.70;99.90
16136;DHT22;8173;48.354;9.248;2022-12-18T08:25:47;-6.70;99.90
16136;DHT22;8173;48.354;9.248;2022-12-18T08:28:16;-6.60;99.90
16136;DHT22;8173;48.354;9.248;2022-12-18T08:30:43;-6.60;99.90
16136;DHT22;8173;48.354;9.248;2022-12-18T08:33:11;-6.50;99.90
16136;DHT22;8173;48.354;9.248;2022-12-18T08:35:38;-6.50;99.90
16136;DHT22;8173;48.354;9.248;2022-12-18T08:38:04;-6.60;99.90
16136;DHT22;8173;48.354;9.248;2022-12-18T08:40:31;-6.70;99.90
16136;DHT22;8173;48.354;9.248;2022-12-18T08:42:58;-6.70;99.90
16136;DHT22;8173;48.354;9.248;2022-12-18T08:45:42;-6.60;99.90
16136;DHT22;8173;48.354;9.248;2022-12-18T08:48:10;-6.50;99.90
16136;DHT22;8173;48.354;9.248;2022-12-18T08:50:37;-6.50;99.90
16136;DHT22;8173;48.354;9.248;2022-12-18T08:53:03;-6.40;99.90
16136;DHT22;8173;48.354;9.248;2022-12-18T08:55:30;-6.40;99.90
16136;DHT22;8173;48.354;9.248;2022-12-18T08:57:57;-6.40;99.90
16136;DHT22;8173;48.354;9.248;2022-12-18T09:00:24;-6.40;99.90
16136;DHT22;8173;48.354;9.248;2022-12-18T09:02:51;-6.40;99.90
16136;DHT22;8173;48.354;9.248;2022-12-18T09:05:19;-6.50;99.90
16136;DHT22;8173;48.354;9.248;2022-12-18T09:07:45;-6.40;99.90
16136;DHT22;8173;48.354;9.248;2022-12-18T09:10:12;-6.40;99.90
16136;DHT22;8173;48.354;9.248;2022-12-18T09:12:39;-6.30;99.90
16136;DHT22;8173;48.354;9.248;2022-12-18T09:15:06;-6.20;99.90
16136;DHT22;8173;48.354;9.248;2022-12-18T09:17:33;-6.10;99.90
16136;DHT22;8173;48.354;9.248;2022-12-18T09:20:00;-6.10;99.90
16136;DHT22;8173;48.354;9.248;2022-12-18T09:22:28;-6.10;99.90
16136;DHT22;8173;48.354;9.248;2022-12-18T09:24:54;-6.10;99.90
16136;DHT22;8173;48.354;9.248;2022-12-18T09:27:21;-6.10;99.90
16136;DHT22;8173;48.354;9.248;2022-12-18T09:29:48;-6.00;99.90
16136;DHT22;8173;48.354;9.248;2022-12-18T09:32:14;-5.90;99.90
16136;DHT22;8173;48.354;9.248;2022-12-18T09:34:41;-5.80;99.90
16136;DHT22;8173;48.354;9.248;2022-12-18T09:37:08;-5.70;99.90
16136;DHT22;8173;48.354;9.248;2022-12-18T09:39:36;-5.70;99.90
16136;DHT22;8173;48.354;9.248;2022-12-18T09:42:03;-5.70;99.90
16136;DHT22;8173;48.354;9.248;2022-12-18T09:44:35;-5.70;99.90
16136;DHT22;8173;48.354;9.248;2022-12-18T09:47:09;-5.70;99.90
16136;DHT22;8173;48.354;9.248;2022-12-18T09:49:41;-5.80;99.90
16136;DHT22;8173;48.354;9.248;2022-12-18T09:52:12;-5.70;99.90
16136;DHT22;8173;48.354;9.248;2022-12-18T09:54:47;-5.70;99.90
16136;DHT22;8173;48.354;9.248;2022-12-18T09:57:18;-5.80;99.90
16136;DHT22;8173;48.354;9.248;2022-12-18T09:59:49;-5.80;99.90
16136;DHT22;8173;48.354;9.248;2022-12-18T10:02:19;-5.70;99.90
16136;DHT22;8173;48.354;9.248;2022-12-18T10:05:02;-5.70;99.90
16136;DHT22;8173;48.354;9.248;2022-12-18T10:07:42;-5.60;99.90
16136;DHT22;8173;48.354;9.248;2022-12-18T10:10:23;-5.70;99.90
16136;DHT22;8173;48.354;9.248;2022-12-18T10:13:00;-5.60;99.90
16136;DHT22;8173;48.354;9.248;2022-12-18T10:15:31;-5.50;99.90
16136;DHT22;8173;48.354;9.248;2022-12-18T10:18:06;-5.40;99.90
16136;DHT22;8173;48.354;9.248;2022-12-18T10:20:41;-5.30;99.90
16136;DHT22;8173;48.354;9.248;2022-12-18T10:23:16;-5.30;99.90
16136;DHT22;8173;48.354;9.248;2022-12-18T10:25:53;-5.30;99.90
16136;DHT22;8173;48.354;9.248;2022-12-18T10:28:21;-5.20;99.90
16136;DHT22;8173;48.354;9.248;2022-12-18T10:30:49;-5.30;99.90
16136;DHT22;8173;48.354;9.248;2022-12-18T10:33:18;-5.30;99.90
16136;DHT22;8173;48.354;9.248;2022-12-18T10:35:47;-5.40;99.90
16136;DHT22;8173;48.354;9.248;2022-12-18T10:38:22;-5.30;99.90
16136;DHT22;8173;48.354;9.248;2022-12-18T10:40:52;-5.30;99.90
16136;DHT22;8173;48.354;9.248;2022-12-18T10:43:21;-5.20;99.90
16136;DHT22;8173;48.354;9.248;2022-12-18T10:46:01;-5.00;99.90
16136;DHT22;8173;48.354;9.248;2022-12-18T10:48:28;-4.80;99.90
16136;DHT22;8173;48.354;9.248;2022-12-18T10:50:55;-4.60;99.90
16136;DHT22;8173;48.354;9.248;2022-12-18T10:53:24;-4.50;99.90
16136;DHT22;8173;48.354;9.248;2022-12-18T10:55:54;-4.40;99.90
16136;DHT22;8173;48.354;9.248;2022-12-18T10:58:24;-4.50;99.90
16136;DHT22;8173;48.354;9.248;2022-12-18T11:01:07;-4.50;99.90
16136;DHT22;8173;48.354;9.248;2022-12-18T11:03:36;-4.60;99.90
16136;DHT22;8173;48.354;9.248;2022-12-18T11:06:06;-4.70;99.90
16136;DHT22;8173;48.354;9.248;2022-12-18T11:08:33;-4.70;99.90
16136;DHT22;8173;48.354;9.248;2022-12-18T11:11:02;-4.80;99.90
16136;DHT22;8173;48.354;9.248;2022-12-18T11:13:31;-4.30;99.90
16136;DHT22;8173;48.354;9.248;2022-12-18T11:15:58;-4.30;99.90
16136;DHT22;8173;48.354;9.248;2022-12-18T11:18:28;-4.20;99.90
16136;DHT22;8173;48.354;9.248;2022-12-18T11:20:57;-4.40;99.90
16136;DHT22;8173;48.354;9.248;2022-12-18T11:23:26;-4.50;99.90
16136;DHT22;8173;48.354;9.248;2022-12-18T11:25:56;-4.50;99.90
16136;DHT22;8173;48.354;9.248;2022-12-18T11:28:34;-4.30;99.90
16136;DHT22;8173;48.354;9.248;2022-12-18T11:31:23;-4.10;99.90
16136;DHT22;8173;48.354;9.248;2022-12-18T11:33:56;-4.00;99.90
16136;DHT22;8173;48.354;9.248;2022-12-18T11:36:26;-3.90;99.90
16136;DHT22;8173;48.354;9.248;2022-12-18T11:38:55;-3.80;99.90
16136;DHT22;8173;48.354;9.248;2022-12-18T11:41:30;-3.70;99.90
16136;DHT22;8173;48.354;9.248;2022-12-18T11:44:18;-3.90;99.90
16136;DHT22;8173;48.354;9.248;2022-12-18T11:46:51;-4.20;99.90
16136;DHT22;8173;48.354;9.248;2022-12-18T11:49:22;-4.20;99.90
16136;DHT22;8173;48.354;9.248;2022-12-18T11:51:58;-4.20;99.90
16136;DHT22;8173;48.354;9.248;2022-12-18T11:54:26;-4.30;99.90
16136;DHT22;8173;48.354;9.248;2022-12-18T11:56:58;-4.20;99.90
16136;DHT22;8173;48.354;9.248;2022-12-18T11:59:33;-3.80;99.90
16136;DHT22;8173;48.354;9.248;2022-12-18T12:02:17;-3.60;99.90
16136;DHT22;8173;48.354;9.248;2022-12-18T12:04:56;-3.50;99.90
16136;DHT22;8173;48.354;9.248;2022-12-18T12:07:35;-3.40;99.90
16136;DHT22;8173;48.354;9.248;2022-12-18T12:10:14;-3.80;99.90
16136;DHT22;8173;48.354;9.248;2022-12-18T12:12:53;-3.80;99.90
16136;DHT22;8173;48.354;9.248;2022-12-18T12:15:30;-3.80;99.90
16136;DHT22;8173;48.354;9.248;2022-12-18T12:18:06;-3.80;99.90
16136;DHT22;8173;48.354;9.248;2022-12-18T12:20:42;-3.80;99.90
16136;DHT22;8173;48.354;9.248;2022-12-18T12:23:15;-3.80;99.90
16136;DHT22;8173;48.354;9.248;2022-12-18T12:25:49;-3.90;99.90
16136;DHT22;8173;48.354;9.248;2022-12-18T12:28:26;-4.20;99.90
16136;DHT22;8173;48.354;9.248;2022-12-18T12:31:06;-4.20;99.90
16136;DHT22;8173;48.354;9.248;2022-12-18T12:33:40;-4.10;99.90
16136;DHT22;8173;48.354;9.248;2022-12-18T12:36:20;-4.20;99.90
16136;DHT22;8173;48.354;9.248;2022-12-18T12:38:51;-4.50;99.90
16136;DHT22;8173;48.354;9.248;2022-12-18T12:41:24;-5.70;99.90
16136;DHT22;8173;48.354;9.248;2022-12-18T12:44:16;-4.80;99.90
16136;DHT22;8173;48.354;9.248;2022-12-18T12:46:47;-4.80;99.90
16136;DHT22;8173;48.354;9.248;2022-12-18T12:49:17;-4.90;99.90
16136;DHT22;8173;48.354;9.248;2022-12-18T12:51:46;-4.90;99.90
16136;DHT22;8173;48.354;9.248;2022-12-18T12:54:19;-4.90;99.90
16136;DHT22;8173;48.354;9.248;2022-12-18T12:56:50;-4.90;99.90
16136;DHT22;8173;48.354;9.248;2022-12-18T12:59:26;-5.00;99.90
16136;DHT22;8173;48.354;9.248;2022-12-18T13:02:01;-5.00;99.90
16136;DHT22;8173;48.354;9.248;2022-12-18T13:04:34;-5.00;99.90
16136;DHT22;8173;48.354;9.248;2022-12-18T13:07:10;-4.90;99.90
16136;DHT22;8173;48.354;9.248;2022-12-18T13:10:13;-4.90;99.90
16136;DHT22;8173;48.354;9.248;2022-12-18T13:12:51;-5.00;99.90
16136;DHT22;8173;48.354;9.248;2022-12-18T13:15:26;-5.10;99.90
16136;DHT22;8173;48.354;9.248;2022-12-18T13:18:19;-5.30;99.90
16136;DHT22;8173;48.354;9.248;2022-12-18T13:20:50;-5.30;99.90
16136;DHT22;8173;48.354;9.248;2022-12-18T13:23:31;-5.20;99.90
16136;DHT22;8173;48.354;9.248;2022-12-18T13:25:59;-5.30;99.90
16136;DHT22;8173;48.354;9.248;2022-12-18T13:28:51;-5.30;99.90
16136;DHT22;8173;48.354;9.248;2022-12-18T13:34:35;-5.40;99.90
16136;DHT22;8173;48.354;9.248;2022-12-18T13:37:36;-5.50;99.90
16136;DHT22;8173;48.354;9.248;2022-12-18T13:43:19;-5.40;99.90
16136;DHT22;8173;48.354;9.248;2022-12-18T13:45:49;-5.40;99.90
16136;DHT22;8173;48.354;9.248;2022-12-18T13:48:18;-5.40;99.90
16136;DHT22;8173;48.354;9.248;2022-12-18T13:50:53;-5.40;99.90
16136;DHT22;8173;48.354;9.248;2022-12-18T13:53:22;-5.50;99.90
16136;DHT22;8173;48.354;9.248;2022-12-18T13:55:50;-5.50;99.90
16136;DHT22;8173;48.354;9.248;2022-12-18T13:58:17;-5.60;99.90
16136;DHT22;8173;48.354;9.248;2022-12-18T14:00:44;-5.60;99.90
16136;DHT22;8173;48.354;9.248;2022-12-18T14:03:19;-5.70;99.90
16136;DHT22;8173;48.354;9.248;2022-12-18T14:05:55;-5.70;99.90
16136;DHT22;8173;48.354;9.248;2022-12-18T14:08:23;-5.70;99.90
16136;DHT22;8173;48.354;9.248;2022-12-18T14:10:51;-5.70;99.90
16136;DHT22;8173;48.354;9.248;2022-12-18T14:13:23;-5.80;99.90
16136;DHT22;8173;48.354;9.248;2022-12-18T14:15:51;-5.70;99.90
16136;DHT22;8173;48.354;9.248;2022-12-18T14:18:21;-5.80;99.90
16136;DHT22;8173;48.354;9.248;2022-12-18T14:20:51;-5.80;99.90
16136;DHT22;8173;48.354;9.248;2022-12-18T14:23:31;-5.80;99.90
16136;DHT22;8173;48.354;9.248;2022-12-18T14:25:59;-5.80;99.90
16136;DHT22;8173;48.354;9.248;2022-12-18T14:28:26;-5.80;99.90
16136;DHT22;8173;48.354;9.248;2022-12-18T14:30:53;-5.80;99.90
16136;DHT22;8173;48.354;9.248;2022-12-18T14:33:23;-5.90;99.90
16136;DHT22;8173;48.354;9.248;2022-12-18T14:35:56;-5.90;99.90
16136;DHT22;8173;48.354;9.248;2022-12-18T14:38:26;-6.10;99.90
16136;DHT22;8173;48.354;9.248;2022-12-18T14:40:59;-6.10;99.90
16136;DHT22;8173;48.354;9.248;2022-12-18T14:43:26;-6.10;99.90
16136;DHT22;8173;48.354;9.248;2022-12-18T14:45:54;-6.10;99.90
16136;DHT22;8173;48.354;9.248;2022-12-18T14:48:24;-3.90;99.90
16136;DHT22;8173;48.354;9.248;2022-12-18T14:50:58;-6.10;99.90
16136;DHT22;8173;48.354;9.248;2022-12-18T14:53:35;-6.10;99.90
16136;DHT22;8173;48.354;9.248;2022-12-18T14:56:13;-6.10;99.90
16136;DHT22;8173;48.354;9.248;2022-12-18T14:58:45;-6.20;99.90
16136;DHT22;8173;48.354;9.248;2022-12-18T15:01:21;-6.20;99.90
16136;DHT22;8173;48.354;9.248;2022-12-18T15:03:50;-6.20;99.90
16136;DHT22;8173;48.354;9.248;2022-12-18T15:06:23;-6.20;99.90
16136;DHT22;8173;48.354;9.248;2022-12-18T15:08:50;-6.20;99.90
16136;DHT22;8173;48.354;9.248;2022-12-18T15:11:33;-6.20;99.90
16136;DHT22;8173;48.354;9.248;2022-12-18T15:14:22;-6.30;99.90
16136;DHT22;8173;48.354;9.248;2022-12-18T15:16:51;-6.30;99.90
16136;DHT22;8173;48.354;9.248;2022-12-18T15:19:20;-6.30;99.90
16136;DHT22;8173;48.354;9.248;2022-12-18T15:21:47;-6.20;99.90
16136;DHT22;8173;48.354;9.248;2022-12-18T15:24:18;-6.30;99.90
16136;DHT22;8173;48.354;9.248;2022-12-18T15:26:46;-6.40;99.90
16136;DHT22;8173;48.354;9.248;2022-12-18T15:29:20;-6.40;99.90
16136;DHT22;8173;48.354;9.248;2022-12-18T15:31:59;-6.40;99.90
16136;DHT22;8173;48.354;9.248;2022-12-18T15:34:26;-6.40;99.90
16136;DHT22;8173;48.354;9.248;2022-12-18T15:36:53;-6.40;99.90
16136;DHT22;8173;48.354;9.248;2022-12-18T15:39:20;-6.40;99.90
16136;DHT22;8173;48.354;9.248;2022-12-18T15:41:48;-6.40;99.90
16136;DHT22;8173;48.354;9.248;2022-12-18T15:44:33;-6.40;99.90
16136;DHT22;8173;48.354;9.248;2022-12-18T15:47:00;-6.40;99.90
16136;DHT22;8173;48.354;9.248;2022-12-18T15:49:26;-6.40;99.90
16136;DHT22;8173;48.354;9.248;2022-12-18T15:51:56;-6.40;99.90
16136;DHT22;8173;48.354;9.248;2022-12-18T15:54:23;-6.40;99.90
16136;DHT22;8173;48.354;9.248;2022-12-18T15:57:07;-6.40;99.90
16136;DHT22;8173;48.354;9.248;2022-12-18T15:59:49;-6.40;99.90
16136;DHT22;8173;48.354;9.248;2022-12-18T16:02:17;-6.40;99.90
16136;DHT22;8173;48.354;9.248;2022-12-18T16:04:44;-6.40;99.90
16136;DHT22;8173;48.354;9.248;2022-12-18T16:07:11;-6.50;99.90
16136;DHT22;8173;48.354;9.248;2022-12-18T16:09:38;-6.50;99.90
16136;DHT22;8173;48.354;9.248;2022-12-18T16:12:16;-6.50;99.90
16136;DHT22;8173;48.354;9.248;2022-12-18T16:14:44;-6.50;99.90
16136;DHT22;8173;48.354;9.248;2022-12-18T16:17:12;-6.50;99.90
16136;DHT22;8173;48.354;9.248;2022-12-18T16:19:39;-6.40;99.90